Time;durP1;ratioP1;P1;durP2;ratioP2;P2;SDS_P1;SDS_P2;PMS_P1;PMS_P2;Temp;Humidity;BMP_temperature;BMP_pressure;BME280_temperature;BME280_humidity;BME280_pressure;Samples;Min_cycle;Max_cycle;Signal;HPM_P1;HPM_P2
2022/01/25 00:25:45;;;;;;;;;;;5.60;51.10;;;;;;4975144;28;20270;-66
2022/01/25 00:28:24;;;;;;;;;;;5.40;50.80;;;;;;4975032;28;19910;-66
2022/01/25 00:31:13;;;;;;;;;;;5.40;51.30;;;;;;4975050;28;19920;-67
2022/01/25 00:33:36;;;;;;;;;;;5.40;51.70;;;;;;4974487;28;19916;-66
2022/01/25 00:36:03;;;;;;;;;;;5.40;51.80;;;;;;4975019;28;20282;-67
2022/01/25 00:38:28;;;;;;;;;;;5.40;51.80;;;;;;4973731;28;19964;-66
2022/01/25 00:40:54;;;;;;;;;;;5.40;51.80;;;;;;4974894;28;19965;-65
2022/01/25 00:43:24;;;;;;;;;;;5.40;51.40;;;;;;4974971;28;19918;-67
2022/01/25 00:45:52;;;;;;;;;;;5.40;51.00;;;;;;4974959;28;19918;-65
2022/01/25 00:48:29;;;;;;;;;;;5.40;50.80;;;;;;4974681;28;19918;-67
2022/01/25 00:51:03;;;;;;;;;;;5.40;51.00;;;;;;4974884;28;19953;-67
2022/01/25 00:56:13;;;;;;;;;;;5.40;51.20;;;;;;4975089;28;19933;-68
2022/01/25 00:58:39;;;;;;;;;;;5.30;51.20;;;;;;4974850;28;19910;-68
2022/01/25 01:01:04;;;;;;;;;;;5.30;51.30;;;;;;4974690;28;20656;-68
2022/01/25 01:03:30;;;;;;;;;;;5.40;51.50;;;;;;4974967;28;19961;-66
2022/01/25 01:05:55;;;;;;;;;;;5.40;50.90;;;;;;4974603;28;19918;-66
2022/01/25 01:08:21;;;;;;;;;;;5.40;50.80;;;;;;4974477;28;19910;-65
2022/01/25 01:10:47;;;;;;;;;;;5.40;50.80;;;;;;4974523;28;19911;-64
2022/01/25 01:15:54;;;;;;;;;;;5.40;50.80;;;;;;4974642;28;20057;-64
2022/01/25 01:29:30;;;;;;;;;;;5.30;51.20;;;;;;4978308;28;19917;-65
2022/01/25 01:32:28;;;;;;;;;;;5.30;51.20;;;;;;4993093;28;19910;-67
2022/01/25 01:48:36;;;;;;;;;;;5.70;51.40;;;;;;4977844;28;20274;-67
2022/01/25 01:51:07;;;;;;;;;;;5.70;52.00;;;;;;4977993;28;19968;-68
2022/01/25 01:53:34;;;;;;;;;;;5.70;51.20;;;;;;4977513;28;19910;-67
2022/01/25 01:55:59;;;;;;;;;;;5.50;51.50;;;;;;4977660;28;20399;-67
2022/01/25 01:58:25;;;;;;;;;;;5.50;52.10;;;;;;4977733;28;19918;-67
2022/01/25 02:00:51;;;;;;;;;;;5.60;52.20;;;;;;4976370;28;20326;-66
2022/01/25 02:03:17;;;;;;;;;;;5.70;52.00;;;;;;4977285;28;20382;-67
2022/01/25 02:05:42;;;;;;;;;;;5.70;52.00;;;;;;4977448;28;19922;-66
2022/01/25 02:08:08;;;;;;;;;;;5.50;52.80;;;;;;4977301;28;19918;-68
2022/01/25 02:10:36;;;;;;;;;;;5.50;52.90;;;;;;4976754;28;20132;-68
2022/01/25 02:13:04;;;;;;;;;;;5.60;52.50;;;;;;4977350;28;19911;-67
2022/01/25 02:15:29;;;;;;;;;;;5.60;53.20;;;;;;4977237;28;19914;-66
2022/01/25 02:23:18;;;;;;;;;;;5.60;52.40;;;;;;4977162;28;19921;-67
2022/01/25 02:25:44;;;;;;;;;;;5.60;52.00;;;;;;4977047;28;20435;-68
2022/01/25 02:28:10;;;;;;;;;;;5.60;53.00;;;;;;4977124;28;19917;-67
2022/01/25 02:30:35;;;;;;;;;;;5.60;52.70;;;;;;4976912;28;20282;-67
2022/01/25 02:33:01;;;;;;;;;;;5.70;50.90;;;;;;4976932;28;20433;-66
2022/01/25 02:35:27;;;;;;;;;;;5.80;50.50;;;;;;4975973;28;20286;-67
2022/01/25 02:37:52;;;;;;;;;;;5.80;50.90;;;;;;4976704;28;20285;-66
2022/01/25 02:40:18;;;;;;;;;;;5.70;51.30;;;;;;4976824;28;19977;-67
2022/01/25 02:42:43;;;;;;;;;;;5.80;50.40;;;;;;4976540;28;20389;-68
2022/01/25 02:45:15;;;;;;;;;;;5.80;50.70;;;;;;4977091;28;19917;-67
2022/01/25 02:50:24;;;;;;;;;;;5.60;52.80;;;;;;4976758;28;20322;-67
2022/01/25 02:52:50;;;;;;;;;;;5.70;50.80;;;;;;4976378;28;19910;-68
2022/01/25 02:55:17;;;;;;;;;;;5.70;50.90;;;;;;4976564;28;19917;-67
2022/01/25 02:57:43;;;;;;;;;;;5.70;51.50;;;;;;4976667;28;20235;-68
2022/01/25 03:00:09;;;;;;;;;;;5.70;52.30;;;;;;4976431;28;19917;-67
2022/01/25 03:02:35;;;;;;;;;;;5.60;53.00;;;;;;4976340;28;20009;-68
2022/01/25 03:05:00;;;;;;;;;;;5.60;53.60;;;;;;4976255;28;19914;-69
2022/01/25 03:07:26;;;;;;;;;;;5.50;53.30;;;;;;4976146;28;19977;-68
2022/01/25 03:09:52;;;;;;;;;;;5.50;53.20;;;;;;4976404;28;20368;-67
2022/01/25 03:12:29;;;;;;;;;;;5.40;52.40;;;;;;4976152;28;19959;-68
2022/01/25 03:17:45;;;;;;;;;;;5.50;52.60;;;;;;4976145;28;20322;-67
2022/01/25 03:20:19;;;;;;;;;;;5.40;53.80;;;;;;4976318;28;19983;-66
2022/01/25 03:22:57;;;;;;;;;;;5.40;54.20;;;;;;4975963;28;19914;-67
2022/01/25 03:25:24;;;;;;;;;;;5.50;54.40;;;;;;4975893;28;19969;-67
2022/01/25 03:27:49;;;;;;;;;;;5.40;54.20;;;;;;4975977;28;19914;-67
2022/01/25 03:30:15;;;;;;;;;;;5.30;54.80;;;;;;4975777;28;19917;-69
2022/01/25 03:32:40;;;;;;;;;;;5.20;55.30;;;;;;4975556;28;19965;-67
2022/01/25 03:35:06;;;;;;;;;;;5.20;55.60;;;;;;4976013;28;19993;-67
2022/01/25 03:37:32;;;;;;;;;;;5.20;55.40;;;;;;4975646;28;20370;-67
2022/01/25 03:39:57;;;;;;;;;;;5.20;56.10;;;;;;4975824;28;19921;-66
2022/01/25 03:42:24;;;;;;;;;;;5.30;55.90;;;;;;4975632;28;20375;-68
2022/01/25 03:44:50;;;;;;;;;;;5.40;55.10;;;;;;4975544;28;19918;-67
2022/01/25 03:47:19;;;;;;;;;;;5.30;55.20;;;;;;4975735;28;19933;-67
2022/01/25 03:49:52;;;;;;;;;;;5.30;54.60;;;;;;4975597;28;19956;-68
2022/01/25 03:52:22;;;;;;;;;;;5.20;55.30;;;;;;4975511;28;20000;-68
2022/01/25 03:54:48;;;;;;;;;;;5.10;56.20;;;;;;4975360;28;19914;-66
2022/01/25 03:57:15;;;;;;;;;;;5.00;56.50;;;;;;4975397;28;19917;-68
2022/01/25 03:59:40;;;;;;;;;;;4.90;56.80;;;;;;4975290;28;20275;-67
2022/01/25 04:02:06;;;;;;;;;;;4.90;56.40;;;;;;4975131;28;19910;-66
2022/01/25 04:04:33;;;;;;;;;;;4.80;56.30;;;;;;4975069;28;20404;-66
2022/01/25 04:07:07;;;;;;;;;;;4.80;56.50;;;;;;4975093;28;19922;-66
2022/01/25 04:09:33;;;;;;;;;;;4.70;56.70;;;;;;4975235;28;20293;-67
2022/01/25 04:11:58;;;;;;;;;;;4.70;56.90;;;;;;4975121;28;19910;-67
2022/01/25 04:14:24;;;;;;;;;;;4.60;57.20;;;;;;4974952;28;20287;-67
2022/01/25 04:16:58;;;;;;;;;;;4.70;57.00;;;;;;4975007;28;19914;-68
2022/01/25 04:27:31;;;;;;;;;;;4.30;58.40;;;;;;4975017;28;19917;-67
2022/01/25 04:29:57;;;;;;;;;;;4.20;59.10;;;;;;4975051;28;20318;-69
2022/01/25 04:32:32;;;;;;;;;;;4.10;59.20;;;;;;4974844;28;19910;-68
2022/01/25 04:35:27;;;;;;;;;;;4.10;59.10;;;;;;4974674;28;20437;-68
2022/01/25 04:59:27;;;;;;;;;;;3.80;60.90;;;;;;4938090;28;20315;-68
2022/01/25 05:01:58;;;;;;;;;;;3.70;61.10;;;;;;4974397;28;20327;-67
2022/01/25 05:04:29;;;;;;;;;;;3.70;61.40;;;;;;4974600;28;19961;-68
2022/01/25 05:07:03;;;;;;;;;;;3.60;61.40;;;;;;4974499;28;19926;-68
2022/01/25 05:09:28;;;;;;;;;;;3.70;61.90;;;;;;4974487;28;20500;-67
2022/01/25 05:11:57;;;;;;;;;;;3.70;61.60;;;;;;4974438;28;19957;-67
2022/01/25 05:14:33;;;;;;;;;;;3.60;61.90;;;;;;4974189;28;19910;-67
2022/01/25 05:17:01;;;;;;;;;;;3.70;61.80;;;;;;4974432;28;19921;-66
2022/01/25 05:22:05;;;;;;;;;;;3.70;61.50;;;;;;4974130;28;20355;-67
2022/01/25 05:22:33;;;;;;;;;;;3.70;61.90;;;;;;4975398;28;19953;-66
2022/01/25 05:24:58;;;;;;;;;;;3.60;62.50;;;;;;4974126;28;20016;-68
2022/01/25 05:27:27;;;;;;;;;;;3.60;62.80;;;;;;4974282;28;20008;-66
2022/01/25 05:29:53;;;;;;;;;;;3.60;62.70;;;;;;4974306;28;19911;-67
2022/01/25 05:32:18;;;;;;;;;;;3.60;63.00;;;;;;4974276;28;20267;-66
2022/01/25 05:34:44;;;;;;;;;;;3.50;63.40;;;;;;4974151;28;19914;-68
2022/01/25 05:37:09;;;;;;;;;;;3.50;63.70;;;;;;4974277;28;19997;-67
2022/01/25 05:39:36;;;;;;;;;;;3.50;63.40;;;;;;4989283;28;19986;-68
2022/01/25 05:47:25;;;;;;;;;;;3.40;63.60;;;;;;4974050;28;19992;-67
2022/01/25 05:49:50;;;;;;;;;;;3.40;64.30;;;;;;4974022;28;19914;-66
2022/01/25 05:52:16;;;;;;;;;;;3.40;64.60;;;;;;4973996;28;20401;-66
2022/01/25 05:54:41;;;;;;;;;;;3.30;64.70;;;;;;4974177;28;19957;-67
2022/01/25 05:57:07;;;;;;;;;;;3.40;64.80;;;;;;4973736;28;19910;-66
2022/01/25 05:59:33;;;;;;;;;;;3.40;64.50;;;;;;4974150;28;19918;-66
2022/01/25 06:01:58;;;;;;;;;;;3.40;64.70;;;;;;4973886;28;19976;-65
2022/01/25 06:04:24;;;;;;;;;;;3.40;65.00;;;;;;4973482;28;20409;-66
2022/01/25 06:06:50;;;;;;;;;;;3.40;65.00;;;;;;4973648;28;20330;-67
2022/01/25 06:09:16;;;;;;;;;;;3.30;65.30;;;;;;4973654;28;19910;-66
2022/01/25 06:11:42;;;;;;;;;;;3.20;65.50;;;;;;4975533;28;20286;-64
2022/01/25 06:14:07;;;;;;;;;;;3.40;65.40;;;;;;4977203;28;19914;-67
2022/01/25 06:16:33;;;;;;;;;;;3.30;66.00;;;;;;4977211;28;19921;-67
2022/01/25 06:18:59;;;;;;;;;;;3.40;65.90;;;;;;4989589;28;19973;-69
2022/01/25 06:21:25;;;;;;;;;;;3.50;65.90;;;;;;4982870;28;20311;-68
2022/01/25 06:23:50;;;;;;;;;;;3.40;65.70;;;;;;4977018;28;19918;-66
2022/01/25 06:26:16;;;;;;;;;;;3.40;66.30;;;;;;4976919;28;20050;-66
2022/01/25 06:28:42;;;;;;;;;;;3.40;66.60;;;;;;4976778;28;19917;-66
2022/01/25 06:31:08;;;;;;;;;;;3.40;66.30;;;;;;4977119;28;19940;-67
2022/01/25 06:33:34;;;;;;;;;;;3.30;66.60;;;;;;4976546;28;20004;-66
2022/01/25 06:36:00;;;;;;;;;;;3.30;67.40;;;;;;4977102;28;19959;-67
2022/01/25 06:38:27;;;;;;;;;;;3.40;67.80;;;;;;4977103;28;19910;-65
2022/01/25 06:40:53;;;;;;;;;;;3.40;67.30;;;;;;4976701;28;19910;-65
2022/01/25 06:43:19;;;;;;;;;;;3.40;67.10;;;;;;4976591;28;19919;-65
2022/01/25 06:45:50;;;;;;;;;;;3.40;68.30;;;;;;4976840;28;19969;-64
2022/01/25 06:48:16;;;;;;;;;;;3.40;67.50;;;;;;4976773;28;20001;-66
2022/01/25 06:50:41;;;;;;;;;;;3.40;67.60;;;;;;4976795;28;20001;-66
2022/01/25 06:53:07;;;;;;;;;;;3.40;67.70;;;;;;4976539;28;19910;-66
2022/01/25 06:55:32;;;;;;;;;;;3.60;70.80;;;;;;4976890;28;20385;-64
2022/01/25 06:57:58;;;;;;;;;;;4.10;69.30;;;;;;4976471;28;19914;-62
2022/01/25 07:00:24;;;;;;;;;;;4.20;66.00;;;;;;4976556;28;19910;-67
2022/01/25 07:02:50;;;;;;;;;;;4.40;66.00;;;;;;4991177;28;19956;-66
2022/01/25 07:05:16;;;;;;;;;;;4.40;64.50;;;;;;4976226;28;19911;-75
2022/01/25 07:07:42;;;;;;;;;;;4.40;64.10;;;;;;4976182;28;19926;-66
2022/01/25 07:10:07;;;;;;;;;;;4.00;65.10;;;;;;4976572;28;19967;-68
2022/01/25 07:12:33;;;;;;;;;;;4.00;66.70;;;;;;4976139;28;20378;-71
2022/01/25 07:14:59;;;;;;;;;;;4.10;66.20;;;;;;4975650;28;20004;-62
2022/01/25 07:17:25;;;;;;;;;;;4.80;71.00;;;;;;4975485;28;19910;-68
2022/01/25 07:19:50;;;;;;;;;;;5.30;65.00;;;;;;4974995;28;20314;-61
2022/01/25 07:22:16;;;;;;;;;;;5.40;61.90;;;;;;4974854;28;19932;-61
2022/01/25 07:24:41;;;;;;;;;;;5.50;61.60;;;;;;4975095;28;19918;-63
2022/01/25 07:27:07;;;;;;;;;;;5.50;61.20;;;;;;4975149;28;19957;-68
2022/01/25 07:29:33;;;;;;;;;;;5.00;62.00;;;;;;4975024;28;19933;-71
2022/01/25 07:31:59;;;;;;;;;;;4.70;64.10;;;;;;4974200;28;19918;-69
2022/01/25 07:34:25;;;;;;;;;;;4.50;65.60;;;;;;4974692;28;20001;-67
2022/01/25 07:36:51;;;;;;;;;;;4.40;66.60;;;;;;4974705;28;19910;-64
2022/01/25 07:39:16;;;;;;;;;;;4.40;67.00;;;;;;4973905;28;19923;-68
2022/01/25 07:41:44;;;;;;;;;;;4.50;67.00;;;;;;4974764;28;19910;-66
2022/01/25 07:44:09;;;;;;;;;;;4.60;66.80;;;;;;4975033;28;19968;-66
2022/01/25 07:46:35;;;;;;;;;;;4.60;66.70;;;;;;4974793;28;20391;-69
2022/01/25 07:49:01;;;;;;;;;;;4.60;66.90;;;;;;4974361;28;20012;-63
2022/01/25 07:51:26;;;;;;;;;;;4.60;67.00;;;;;;4974779;28;20282;-66
2022/01/25 07:53:53;;;;;;;;;;;4.80;67.20;;;;;;4974580;28;19917;-63
2022/01/25 07:56:19;;;;;;;;;;;4.90;66.90;;;;;;4974834;28;20033;-64
2022/01/25 07:58:45;;;;;;;;;;;4.90;66.70;;;;;;4972307;28;20057;-66
2022/01/25 08:01:11;;;;;;;;;;;5.00;66.50;;;;;;4974476;28;19949;-64
2022/01/25 08:03:36;;;;;;;;;;;5.10;66.60;;;;;;4974701;28;20271;-66
2022/01/25 08:06:02;;;;;;;;;;;5.30;66.10;;;;;;4974369;28;20361;-61
2022/01/25 08:08:28;;;;;;;;;;;5.40;65.70;;;;;;4973023;28;19918;-67
2022/01/25 08:10:53;;;;;;;;;;;5.50;65.50;;;;;;4976390;28;19917;-64
2022/01/25 08:13:19;;;;;;;;;;;5.60;65.40;;;;;;4974479;28;20016;-63
2022/01/25 08:15:45;;;;;;;;;;;5.70;65.20;;;;;;4971805;28;19918;-63
2022/01/25 08:18:11;;;;;;;;;;;5.80;64.80;;;;;;4974297;28;19917;-66
2022/01/25 08:20:37;;;;;;;;;;;5.90;64.30;;;;;;4974395;28;19914;-63
2022/01/25 08:23:03;;;;;;;;;;;6.10;64.50;;;;;;4974096;28;19914;-66
2022/01/25 08:25:29;;;;;;;;;;;6.20;64.30;;;;;;4974047;28;20440;-72
2022/01/25 08:27:55;;;;;;;;;;;6.20;63.70;;;;;;4974065;28;20377;-76
2022/01/25 08:30:20;;;;;;;;;;;6.40;63.30;;;;;;4973701;28;19922;-75
2022/01/25 08:32:46;;;;;;;;;;;6.60;62.30;;;;;;4973614;28;20289;-77
2022/01/25 08:35:11;;;;;;;;;;;6.60;61.40;;;;;;4972014;28;20288;-71
2022/01/25 08:37:37;;;;;;;;;;;6.80;60.90;;;;;;4971537;28;19922;-66
2022/01/25 08:40:04;;;;;;;;;;;6.90;60.10;;;;;;4971194;28;19918;-62
2022/01/25 08:42:30;;;;;;;;;;;7.00;61.20;;;;;;4971066;28;19977;-64
2022/01/25 08:44:55;;;;;;;;;;;7.10;60.00;;;;;;4972109;28;20013;-67
2022/01/25 08:47:21;;;;;;;;;;;7.20;59.10;;;;;;4972829;28;19917;-64
2022/01/25 08:49:46;;;;;;;;;;;7.30;58.80;;;;;;4972533;28;19915;-64
2022/01/25 08:52:12;;;;;;;;;;;7.40;59.00;;;;;;4971429;28;19961;-65
2022/01/25 08:54:37;;;;;;;;;;;7.60;58.20;;;;;;4973034;28;20330;-68
2022/01/25 08:57:03;;;;;;;;;;;7.60;57.60;;;;;;4972850;28;19965;-67
2022/01/25 08:59:29;;;;;;;;;;;7.70;57.60;;;;;;4973143;28;19914;-67
2022/01/25 09:01:55;;;;;;;;;;;7.80;56.70;;;;;;4972743;28;19920;-63
2022/01/25 09:04:21;;;;;;;;;;;7.80;57.00;;;;;;4972687;28;20341;-61
2022/01/25 09:06:47;;;;;;;;;;;7.90;56.70;;;;;;4972589;28;19922;-62
2022/01/25 09:09:12;;;;;;;;;;;8.00;56.20;;;;;;4973011;28;19911;-62
2022/01/25 09:11:39;;;;;;;;;;;8.00;55.50;;;;;;4973049;28;20306;-63
2022/01/25 09:14:05;;;;;;;;;;;8.00;55.60;;;;;;4972778;28;19917;-63
2022/01/25 09:16:34;;;;;;;;;;;8.00;55.30;;;;;;4972807;28;19934;-62
2022/01/25 09:19:00;;;;;;;;;;;8.10;55.60;;;;;;4972997;28;19926;-62
2022/01/25 09:21:25;;;;;;;;;;;8.10;54.60;;;;;;4972832;28;19978;-63
2022/01/25 09:23:51;;;;;;;;;;;8.00;54.60;;;;;;4972836;28;20262;-64
2022/01/25 09:26:17;;;;;;;;;;;8.00;54.60;;;;;;4973258;28;19910;-62
2022/01/25 09:28:43;;;;;;;;;;;8.00;54.80;;;;;;4973064;28;19914;-62
2022/01/25 09:31:09;;;;;;;;;;;8.10;55.20;;;;;;4973640;28;19914;-63
2022/01/25 09:33:34;;;;;;;;;;;8.10;55.20;;;;;;4973140;28;20278;-61
2022/01/25 09:36:00;;;;;;;;;;;8.10;55.40;;;;;;4973305;28;19925;-62
2022/01/25 09:38:25;;;;;;;;;;;8.10;54.50;;;;;;4970811;28;19910;-62
2022/01/25 09:40:51;;;;;;;;;;;7.70;54.70;;;;;;4973585;28;19910;-60
2022/01/25 09:43:19;;;;;;;;;;;7.50;55.60;;;;;;4973166;28;20020;-61
2022/01/25 09:45:45;;;;;;;;;;;7.80;56.00;;;;;;4976146;28;20009;-63
2022/01/25 09:48:11;;;;;;;;;;;7.90;55.70;;;;;;4977664;28;19946;-62
2022/01/25 09:50:37;;;;;;;;;;;8.10;55.10;;;;;;4977600;28;19914;-63
2022/01/25 09:53:04;;;;;;;;;;;8.30;54.40;;;;;;4976932;28;19910;-63
2022/01/25 09:55:39;;;;;;;;;;;8.30;53.90;;;;;;4975633;28;20001;-62
2022/01/25 09:58:05;;;;;;;;;;;8.30;54.30;;;;;;4977188;28;20382;-61
2022/01/25 10:00:32;;;;;;;;;;;8.50;54.00;;;;;;4981213;28;19910;-64
2022/01/25 10:05:34;;;;;;;;;;;8.60;53.90;;;;;;4976822;28;19914;-63
2022/01/25 10:08:01;;;;;;;;;;;8.80;54.50;;;;;;4970708;28;19922;-61
2022/01/25 10:10:28;;;;;;;;;;;8.80;54.30;;;;;;4976411;28;20004;-63
2022/01/25 10:12:55;;;;;;;;;;;9.00;54.40;;;;;;4976721;28;19910;-64
2022/01/25 10:15:24;;;;;;;;;;;9.10;53.50;;;;;;4976475;28;19910;-64
2022/01/25 10:17:50;;;;;;;;;;;9.20;54.10;;;;;;4976484;28;19989;-61
2022/01/25 10:20:32;;;;;;;;;;;9.30;54.30;;;;;;4976659;28;20270;-62
2022/01/25 10:23:00;;;;;;;;;;;9.30;54.30;;;;;;4975765;28;19914;-63
2022/01/25 10:25:36;;;;;;;;;;;8.90;53.70;;;;;;4974196;28;20284;-66
2022/01/25 10:28:03;;;;;;;;;;;8.50;54.10;;;;;;4976227;28;19910;-69
2022/01/25 10:30:30;;;;;;;;;;;8.70;55.00;;;;;;4976439;28;19914;-65
2022/01/25 10:32:59;;;;;;;;;;;8.90;54.70;;;;;;4976063;28;19921;-67
2022/01/25 10:35:24;;;;;;;;;;;8.70;54.10;;;;;;4976633;28;19910;-71
2022/01/25 10:37:50;;;;;;;;;;;8.40;55.30;;;;;;4977023;28;19910;-63
2022/01/25 10:40:33;;;;;;;;;;;8.60;55.20;;;;;;4977100;28;19918;-68
2022/01/25 10:42:58;;;;;;;;;;;8.90;55.20;;;;;;4976470;28;19921;-66
2022/01/25 10:45:24;;;;;;;;;;;8.80;55.10;;;;;;4965113;28;20401;-68
2022/01/25 10:47:51;;;;;;;;;;;8.70;55.20;;;;;;4974327;28;19921;-68
2022/01/25 10:50:27;;;;;;;;;;;8.50;55.90;;;;;;4976820;28;19943;-63
2022/01/25 10:53:07;;;;;;;;;;;8.20;56.90;;;;;;4971125;28;20029;-63
2022/01/25 10:55:40;;;;;;;;;;;8.20;57.60;;;;;;4976173;28;19914;-65
2022/01/25 10:58:07;;;;;;;;;;;8.10;57.00;;;;;;4975072;28;20378;-62
2022/01/25 11:00:34;;;;;;;;;;;8.30;57.20;;;;;;4974551;28;20566;-69
2022/01/25 11:03:01;;;;;;;;;;;8.60;56.10;;;;;;4976021;28;19970;-64
2022/01/25 11:05:30;;;;;;;;;;;8.50;56.80;;;;;;4975412;28;19918;-62
2022/01/25 11:07:55;;;;;;;;;;;8.80;57.00;;;;;;4975471;28;19926;-63
2022/01/25 11:10:21;;;;;;;;;;;9.00;55.70;;;;;;4975489;28;19910;-65
2022/01/25 11:13:10;;;;;;;;;;;8.90;54.80;;;;;;4975143;28;20368;-63
2022/01/25 11:15:36;;;;;;;;;;;9.10;55.10;;;;;;4975341;28;20004;-63
2022/01/25 11:18:03;;;;;;;;;;;9.40;54.40;;;;;;4978973;28;19946;-66
2022/01/25 11:20:28;;;;;;;;;;;9.00;54.70;;;;;;4980228;28;19957;-68
2022/01/25 11:22:55;;;;;;;;;;;9.30;55.20;;;;;;4987783;28;19917;-65
2022/01/25 11:25:22;;;;;;;;;;;9.40;55.20;;;;;;4985948;28;19925;-66
2022/01/25 11:27:48;;;;;;;;;;;9.50;54.70;;;;;;4986636;28;19910;-66
2022/01/25 11:30:16;;;;;;;;;;;9.60;55.20;;;;;;4982052;28;20358;-68
2022/01/25 11:32:43;;;;;;;;;;;9.50;55.90;;;;;;4976234;28;19921;-68
2022/01/25 11:35:10;;;;;;;;;;;9.20;57.20;;;;;;4976003;28;19986;-66
2022/01/25 11:37:38;;;;;;;;;;;9.20;58.50;;;;;;4975841;28;19917;-67
2022/01/25 11:40:18;;;;;;;;;;;9.30;58.50;;;;;;5003601;28;20008;-65
2022/01/25 11:42:48;;;;;;;;;;;9.40;57.70;;;;;;4975017;28;19941;-66
2022/01/25 11:45:14;;;;;;;;;;;9.20;58.60;;;;;;4975412;28;19964;-68
2022/01/25 11:47:40;;;;;;;;;;;9.50;58.70;;;;;;4974794;28;19953;-65
2022/01/25 11:50:10;;;;;;;;;;;9.60;58.50;;;;;;4974934;28;19965;-67
2022/01/25 11:52:45;;;;;;;;;;;9.70;57.50;;;;;;4975275;28;20029;-65
2022/01/25 11:55:31;;;;;;;;;;;9.90;57.10;;;;;;4975282;28;19957;-68
2022/01/25 11:57:59;;;;;;;;;;;9.90;57.30;;;;;;4975275;28;19911;-66
2022/01/25 12:00:45;;;;;;;;;;;9.80;57.10;;;;;;4975240;28;19923;-70
2022/01/25 12:03:20;;;;;;;;;;;9.70;57.70;;;;;;4964777;28;19921;-63
2022/01/25 12:05:53;;;;;;;;;;;9.90;57.70;;;;;;4965465;28;20450;-70
2022/01/25 12:08:27;;;;;;;;;;;10.00;57.30;;;;;;4973000;28;19929;-69
2022/01/25 12:10:58;;;;;;;;;;;9.90;57.50;;;;;;4977491;28;19918;-69
2022/01/25 12:13:28;;;;;;;;;;;10.00;57.60;;;;;;4974626;28;19964;-65
2022/01/25 12:16:13;;;;;;;;;;;10.10;57.30;;;;;;4974984;28;19964;-66
2022/01/25 12:18:54;;;;;;;;;;;10.10;57.30;;;;;;4973421;28;19931;-71
2022/01/25 12:21:40;;;;;;;;;;;9.90;57.10;;;;;;4972131;28;20062;-67
2022/01/25 12:24:17;;;;;;;;;;;9.90;57.50;;;;;;4972958;28;20286;-69
2022/01/25 12:27:09;;;;;;;;;;;9.70;57.60;;;;;;4972764;28;20383;-66
2022/01/25 12:29:36;;;;;;;;;;;10.00;57.50;;;;;;4955526;28;20024;-68
2022/01/25 12:32:21;;;;;;;;;;;10.00;57.10;;;;;;4955463;28;20398;-72
2022/01/25 12:35:00;;;;;;;;;;;10.10;56.90;;;;;;4955125;29;19910;-67
2022/01/25 12:37:44;;;;;;;;;;;10.10;57.30;;;;;;4955458;29;19918;-66
2022/01/25 12:40:25;;;;;;;;;;;10.00;56.60;;;;;;4955591;28;20008;-72
2022/01/25 12:42:55;;;;;;;;;;;9.40;57.00;;;;;;4954785;28;19966;-73
2022/01/25 12:45:21;;;;;;;;;;;9.30;58.30;;;;;;4953814;29;19914;-71
2022/01/25 12:48:16;;;;;;;;;;;9.40;58.40;;;;;;4955159;29;19914;-67
2022/01/25 12:50:44;;;;;;;;;;;9.50;58.30;;;;;;4950387;29;19911;-71
2022/01/25 12:53:11;;;;;;;;;;;9.10;59.40;;;;;;4954842;28;19914;-69
2022/01/25 12:55:38;;;;;;;;;;;9.40;59.30;;;;;;4954989;29;19911;-73
2022/01/25 12:58:04;;;;;;;;;;;9.60;58.60;;;;;;4955085;29;19984;-70
2022/01/25 13:00:31;;;;;;;;;;;9.60;58.10;;;;;;4954835;28;20359;-71
2022/01/25 13:03:15;;;;;;;;;;;9.30;58.90;;;;;;4955412;28;20108;-67
2022/01/25 13:05:42;;;;;;;;;;;9.40;59.50;;;;;;4955442;28;19929;-65
2022/01/25 13:08:18;;;;;;;;;;;9.60;59.10;;;;;;4955828;28;19910;-71
2022/01/25 13:10:43;;;;;;;;;;;9.70;58.40;;;;;;4973719;28;19910;-68
2022/01/25 13:13:21;;;;;;;;;;;9.60;58.20;;;;;;4973579;28;19920;-74
2022/01/25 13:18:12;;;;;;;;;;;9.40;59.00;;;;;;4977674;28;19925;-66
2022/01/25 13:20:43;;;;;;;;;;;9.50;58.90;;;;;;4972572;28;20318;-70
2022/01/25 13:23:09;;;;;;;;;;;9.60;59.00;;;;;;4977312;28;19922;-69
2022/01/25 13:25:54;;;;;;;;;;;9.60;58.40;;;;;;4977478;28;19910;-69
2022/01/25 13:28:53;;;;;;;;;;;9.70;58.50;;;;;;4978310;28;20327;-65
2022/01/25 13:31:20;;;;;;;;;;;9.70;58.50;;;;;;4997425;28;19949;-66
2022/01/25 13:33:46;;;;;;;;;;;9.80;58.50;;;;;;4997241;28;20104;-63
2022/01/25 13:36:16;;;;;;;;;;;9.80;58.90;;;;;;4978657;28;20429;-64
2022/01/25 13:38:41;;;;;;;;;;;9.80;58.30;;;;;;4978253;28;19925;-66
2022/01/25 13:46:23;;;;;;;;;;;9.60;59.00;;;;;;4980286;28;19980;-74
2022/01/25 13:48:50;;;;;;;;;;;9.60;59.20;;;;;;4977691;28;19992;-76
2022/01/25 13:51:20;;;;;;;;;;;9.80;59.10;;;;;;4977152;28;20297;-69
2022/01/25 13:53:53;;;;;;;;;;;9.60;59.10;;;;;;4978061;28;19910;-69
2022/01/25 13:56:19;;;;;;;;;;;9.20;59.80;;;;;;4977766;28;19914;-71
2022/01/25 13:58:47;;;;;;;;;;;9.20;60.60;;;;;;4977880;28;19910;-70
2022/01/25 14:01:13;;;;;;;;;;;9.20;60.40;;;;;;4992478;28;19936;-68
2022/01/25 14:03:41;;;;;;;;;;;9.30;60.40;;;;;;4977268;28;20004;-70
2022/01/25 14:06:26;;;;;;;;;;;9.40;60.30;;;;;;4977093;28;19965;-70
2022/01/25 14:08:58;;;;;;;;;;;9.30;60.20;;;;;;4977561;28;19917;-71
2022/01/25 14:11:36;;;;;;;;;;;9.40;60.30;;;;;;4977277;28;19910;-70
2022/01/25 14:22:50;;;;;;;;;;;9.60;59.70;;;;;;4977472;28;19934;-69
2022/01/25 14:25:27;;;;;;;;;;;9.60;59.90;;;;;;4977278;28;20310;-66
2022/01/25 14:27:55;;;;;;;;;;;9.50;60.00;;;;;;4977206;28;19916;-71
2022/01/25 14:30:20;;;;;;;;;;;9.40;60.20;;;;;;4977142;28;20021;-68
2022/01/25 14:33:11;;;;;;;;;;;9.30;60.60;;;;;;4975725;28;20378;-69
2022/01/25 14:35:43;;;;;;;;;;;9.30;61.00;;;;;;4977186;28;19914;-70
2022/01/25 14:38:13;;;;;;;;;;;9.20;61.10;;;;;;4975449;28;19914;-65
2022/01/25 14:40:39;;;;;;;;;;;9.30;61.30;;;;;;4976892;28;19914;-71
2022/01/25 14:43:04;;;;;;;;;;;9.30;61.40;;;;;;4976719;28;19985;-71
2022/01/25 14:45:30;;;;;;;;;;;9.20;61.50;;;;;;4976842;28;19969;-67
2022/01/25 14:47:57;;;;;;;;;;;9.20;61.60;;;;;;4976985;28;19916;-67
2022/01/25 14:50:24;;;;;;;;;;;9.20;61.70;;;;;;4977125;28;20405;-69
2022/01/25 14:53:10;;;;;;;;;;;9.00;62.00;;;;;;4977116;28;20247;-68
2022/01/25 14:55:37;;;;;;;;;;;8.80;62.80;;;;;;4976259;28;19958;-66
2022/01/25 14:59:22;;;;;;;;;;;8.70;63.50;;;;;;4975353;28;19918;-73
2022/01/25 15:00:50;;;;;;;;;;;8.60;63.90;;;;;;4975265;28;20355;-67
2022/01/25 15:03:16;;;;;;;;;;;8.60;63.80;;;;;;4976465;28;19925;-69
2022/01/25 15:05:41;;;;;;;;;;;8.50;64.30;;;;;;4977093;28;19919;-69
2022/01/25 15:08:07;;;;;;;;;;;8.40;64.40;;;;;;4976642;28;19910;-69
2022/01/25 15:10:34;;;;;;;;;;;8.30;64.80;;;;;;4976870;28;20259;-71
2022/01/25 15:13:02;;;;;;;;;;;8.20;65.60;;;;;;4980528;28;19921;-67
2022/01/25 15:15:46;;;;;;;;;;;8.10;66.90;;;;;;4988627;28;20005;-69
2022/01/25 15:18:11;;;;;;;;;;;8.10;66.20;;;;;;4988296;28;19917;-65
2022/01/25 15:20:37;;;;;;;;;;;8.10;66.00;;;;;;4987368;28;19910;-65
2022/01/25 15:23:03;;;;;;;;;;;8.10;66.00;;;;;;4991688;28;19910;-68
2022/01/25 15:25:29;;;;;;;;;;;8.00;66.50;;;;;;4985651;28;20268;-69
2022/01/25 15:27:55;;;;;;;;;;;7.90;67.10;;;;;;4980865;28;19965;-67
2022/01/25 15:30:21;;;;;;;;;;;7.80;67.70;;;;;;4979551;28;20370;-69
2022/01/25 15:32:46;;;;;;;;;;;7.70;67.90;;;;;;4976706;28;19997;-69
2022/01/25 15:35:12;;;;;;;;;;;7.60;68.20;;;;;;4976627;28;19910;-69
2022/01/25 15:37:39;;;;;;;;;;;7.60;68.20;;;;;;4975052;28;19910;-66
2022/01/25 15:40:05;;;;;;;;;;;7.50;68.50;;;;;;4976048;28;19916;-66
2022/01/25 15:42:33;;;;;;;;;;;7.60;68.80;;;;;;4975690;28;19918;-69
2022/01/25 15:45:08;;;;;;;;;;;7.50;68.80;;;;;;4974242;28;19919;-68
2022/01/25 15:47:34;;;;;;;;;;;7.50;69.00;;;;;;4975851;28;19914;-65
2022/01/25 15:49:59;;;;;;;;;;;7.50;69.00;;;;;;4975200;28;19917;-65
2022/01/25 15:52:25;;;;;;;;;;;7.40;69.10;;;;;;4974766;28;19918;-62
2022/01/25 15:54:50;;;;;;;;;;;7.40;69.30;;;;;;4974663;28;20478;-68
2022/01/25 15:57:16;;;;;;;;;;;7.40;69.40;;;;;;4974463;28;20327;-62
2022/01/25 15:59:41;;;;;;;;;;;7.30;69.40;;;;;;4974675;28;19910;-69
2022/01/25 16:02:13;;;;;;;;;;;7.20;69.40;;;;;;4974567;28;20305;-65
2022/01/25 16:04:43;;;;;;;;;;;7.20;69.60;;;;;;4974722;28;19922;-64
2022/01/25 16:07:12;;;;;;;;;;;7.10;69.80;;;;;;4975318;28;19929;-69
2022/01/25 16:09:39;;;;;;;;;;;7.10;70.10;;;;;;4975174;28;19924;-69
2022/01/25 16:12:06;;;;;;;;;;;7.10;70.30;;;;;;4975245;28;19959;-70
2022/01/25 16:14:31;;;;;;;;;;;7.00;70.30;;;;;;4975009;28;20009;-70
2022/01/25 16:16:57;;;;;;;;;;;6.90;70.40;;;;;;4974470;28;20001;-66
2022/01/25 16:19:22;;;;;;;;;;;6.90;70.60;;;;;;4974654;28;19916;-63
2022/01/25 16:21:48;;;;;;;;;;;6.90;70.80;;;;;;4974140;28;19910;-66
2022/01/25 16:24:14;;;;;;;;;;;7.00;70.70;;;;;;4972357;28;19929;-65
2022/01/25 16:26:40;;;;;;;;;;;7.20;69.60;;;;;;4973098;28;19914;-66
2022/01/25 16:29:05;;;;;;;;;;;7.00;69.80;;;;;;4971833;28;19969;-63
2022/01/25 16:31:32;;;;;;;;;;;6.90;70.40;;;;;;4972896;28;20355;-67
2022/01/25 16:33:59;;;;;;;;;;;6.80;70.60;;;;;;4972340;28;19922;-67
2022/01/25 16:36:25;;;;;;;;;;;6.70;70.90;;;;;;4972571;28;20343;-70